Insula Oya 2 — FUKI — position and weather

sailwx.info

Track history (hours):
 
Tides and Currents Weather Stations Pressure Air Temp Water Temp Dewpoint Dewpoint Depression Visibility Wind Speed Wind Dir Waves Ship Positions

Insula Oya 2

Last reported at 2017-Jun-24 04:45 UTC. Time now 2017-Jun-24 17:29 UTC.
Position N 46°53' W 002°11'.

Length 50 m; draft 2.4 m.

Type: Passenger vessel. MMSI: 227004900.

Date/timePositionNaut miles runAvg speedWind from/ knotsBaromVisibWave heightAir tempDewpointWater temp
2017-Jun-24 04:45N 46°53' W 002°11'2 8.8
2017-Jun-24 04:30N 46°54' W 002°08'0 0.0
2017-Jun-24 03:59N 46°54' W 002°08'0 0.0
2017-Jun-24 03:13N 46°54' W 002°08'0 0.0
2017-Jun-24 02:58N 46°54' W 002°08'0 0.0
2017-Jun-24 02:28N 46°54' W 002°08'0 0.0
2017-Jun-24 01:58N 46°54' W 002°08'0 0.0
2017-Jun-24 01:28N 46°54' W 002°08'0 0.0
2017-Jun-24 00:58N 46°54' W 002°08'0 0.0
2017-Jun-24 00:25N 46°54' W 002°08'0 0.0
2017-Jun-23 23:58N 46°54' W 002°08'0 0.0
2017-Jun-23 23:22N 46°54' W 002°08'0 0.0
2017-Jun-23 22:58N 46°54' W 002°08'0 0.0
2017-Jun-23 22:28N 46°54' W 002°08'0 0.0
2017-Jun-23 21:58N 46°54' W 002°08'0 0.0
2017-Jun-23 21:28N 46°54' W 002°08'0 0.0
2017-Jun-23 20:58N 46°54' W 002°08'0 0.0
2017-Jun-23 20:28N 46°54' W 002°08'0 0.0
2017-Jun-23 19:58N 46°54' W 002°08'0 0.0
2017-Jun-23 19:28N 46°54' W 002°08'0 0.0
2017-Jun-23 18:52N 46°54' W 002°08'0 0.0
2017-Jun-23 18:28N 46°54' W 002°08'0 0.0
2017-Jun-23 17:58N 46°54' W 002°08'0 0.0
2017-Jun-23 17:19N 46°54' W 002°08'0 0.0
2017-Jun-23 16:58N 46°54' W 002°08'0 0.0
2017-Jun-23 16:25N 46°54' W 002°08'0 0.0
2017-Jun-23 15:55N 46°54' W 002°08'0 0.0
2017-Jun-23 15:13N 46°54' W 002°08'0 0.0
2017-Jun-23 14:55N 46°54' W 002°08'0 0.0
2017-Jun-23 13:49N 46°54' W 002°08'0 0.0
2017-Jun-23 13:23N 46°54' W 002°08'13 1.6
2017-Jun-23 05:08N 46°44' W 002°21'411.2
2017-Jun-23 04:47N 46°47' W 002°17'414.4
2017-Jun-23 04:29N 46°50' W 002°14'510.8
2017-Jun-23 04:00N 46°54' W 002°08'0 0.0
2017-Jun-23 03:30N 46°54' W 002°08'0 0.0
2017-Jun-23 02:59N 46°54' W 002°08'1 2.4
2017-Jun-23 02:30N 46°54' W 002°10'612.0
2017-Jun-23 02:00N 46°49' W 002°16'612.9
2017-Jun-23 01:31N 46°44' W 002°21'3 0.4
2017-Jun-22 15:49N 46°46' W 002°18'414.1
2017-Jun-22 15:30N 46°50' W 002°14'510.8
2017-Jun-22 15:01N 46°54' W 002°08'0 0.0
2017-Jun-22 13:56N 46°54' W 002°08'0 0.0
2017-Jun-22 13:20N 46°54' W 002°08'1 3.8
2017-Jun-22 13:00N 46°54' W 002°10'812.9
2017-Jun-22 12:22N 46°47' W 002°17'4 0.7
2017-Jun-22 06:25N 46°44' W 002°21'0 0.0
2017-Jun-22 05:58N 46°44' W 002°21'0 0.0
2017-Jun-22 05:19N 46°44' W 002°21'0 0.0
2017-Jun-22 04:58N 46°44' W 002°21'0 0.0
2017-Jun-22 04:13N 46°44' W 002°21'0 0.0
2017-Jun-22 03:53N 46°44' W 002°21'410.7
2017-Jun-22 03:30N 46°47' W 002°17'714.1
2017-Jun-22 03:00N 46°53' W 002°12'3 5.1
2017-Jun-22 02:30N 46°54' W 002°08'0 0.0
2017-Jun-22 02:00N 46°54' W 002°08'0 0.0
2017-Jun-22 01:29N 46°54' W 002°08'0 0.0
2017-Jun-22 00:57N 46°54' W 002°08'0 0.0
2017-Jun-22 00:27N 46°54' W 002°08'0 0.0
2017-Jun-21 23:57N 46°54' W 002°08'0 0.0
2017-Jun-21 23:30N 46°54' W 002°08'0 0.0
2017-Jun-21 23:00N 46°54' W 002°08'0 0.0
2017-Jun-21 22:15N 46°54' W 002°08'0 0.0
2017-Jun-21 21:57N 46°54' W 002°08'0 0.0
2017-Jun-21 20:51N 46°54' W 002°08'0 0.0
2017-Jun-21 20:24N 46°54' W 002°08'0 0.0
2017-Jun-21 19:57N 46°54' W 002°08'0 0.0
2017-Jun-21 19:30N 46°54' W 002°08'0 0.0
2017-Jun-21 19:00N 46°54' W 002°08'0 0.0
2017-Jun-21 18:30N 46°54' W 002°08'0 0.0
2017-Jun-21 18:00N 46°54' W 002°08'0 0.0
2017-Jun-21 17:30N 46°54' W 002°08'0 0.0
2017-Jun-21 17:00N 46°54' W 002°08'0 0.0
2017-Jun-21 16:30N 46°54' W 002°08'0 0.0
2017-Jun-21 15:57N 46°54' W 002°08'2 3.6
2017-Jun-21 15:30N 46°54' W 002°11'612.2
2017-Jun-21 15:01N 46°49' W 002°16'612.2
2017-Jun-21 14:30N 46°44' W 002°21'0 0.0
2017-Jun-21 13:24N 46°44' W 002°21'0 0.0
2017-Jun-21 12:24N 46°44' W 002°21'3 7.7
2017-Jun-21 12:00N 46°46' W 002°18'713.2
2017-Jun-21 11:29N 46°52' W 002°13'4 7.4
2017-Jun-21 11:00N 46°54' W 002°08'0 0.0
2017-Jun-21 10:28N 46°54' W 002°08'0 0.0
2017-Jun-21 09:32N 46°54' W 002°08'0 0.1
2017-Jun-21 09:26N 46°54' W 002°08'0 0.0
2017-Jun-21 08:44N 46°54' W 002°08'0 0.0
2017-Jun-21 08:26N 46°54' W 002°08'0 0.0
2017-Jun-21 07:56N 46°54' W 002°08'0 0.0
2017-Jun-21 06:50N 46°54' W 002°08'0 0.0
2017-Jun-21 06:29N 46°54' W 002°08'0 0.0
2017-Jun-21 05:26N 46°54' W 002°08'0 0.0
2017-Jun-21 04:56N 46°54' W 002°08'0 0.0
2017-Jun-21 04:29N 46°54' W 002°08'0 0.0
2017-Jun-21 03:59N 46°54' W 002°08'0 0.0
2017-Jun-21 03:29N 46°54' W 002°08'0 0.0
2017-Jun-21 02:59N 46°54' W 002°08'0 0.0
2017-Jun-21 02:29N 46°54' W 002°08'0 0.0
2017-Jun-21 01:59N 46°54' W 002°08'0 0.0
2017-Jun-21 01:29N 46°54' W 002°08'0 0.0
2017-Jun-21 00:59N 46°54' W 002°08'0 0.0
2017-Jun-21 00:20N 46°54' W 002°08'0 0.0
2017-Jun-20 23:53N 46°54' W 002°08'0 0.0
2017-Jun-20 23:29N 46°54' W 002°08'0 0.0
2017-Jun-20 22:59N 46°54' W 002°08'0 0.0
2017-Jun-20 22:29N 46°54' W 002°08'0 0.0
2017-Jun-20 21:59N 46°54' W 002°08'0 0.0
2017-Jun-20 21:29N 46°54' W 002°08'0 0.0
2017-Jun-20 20:56N 46°54' W 002°08'0 0.0
2017-Jun-20 20:29N 46°54' W 002°08'0 0.0
2017-Jun-20 19:35N 46°54' W 002°08'0 0.0
2017-Jun-20 19:29N 46°54' W 002°08'0 0.0
2017-Jun-20 18:53N 46°54' W 002°08'0 0.0
2017-Jun-20 18:29N 46°54' W 002°08'0 0.0
2017-Jun-20 17:59N 46°54' W 002°08'0 0.0
2017-Jun-20 17:26N 46°54' W 002°08'0 0.0
2017-Jun-20 16:50N 46°54' W 002°08'0 0.0
2017-Jun-20 16:26N 46°54' W 002°08'0 0.0
2017-Jun-20 15:56N 46°54' W 002°08'0 0.0
2017-Jun-20 14:44N 46°54' W 002°08'710.0
2017-Jun-20 14:00N 46°49' W 002°16'612.0
2017-Jun-20 13:30N 46°44' W 002°21'0 0.0
2017-Jun-20 12:55N 46°44' W 002°21'0 0.0
2017-Jun-20 12:16N 46°44' W 002°21'0 0.0
2017-Jun-20 11:49N 46°44' W 002°21'0 0.0
2017-Jun-20 11:23N 46°44' W 002°21'4 9.3
2017-Jun-20 11:00N 46°46' W 002°18'713.1
2017-Jun-20 10:30N 46°52' W 002°13'3 6.9
2017-Jun-20 10:00N 46°54' W 002°08'0 0.0
2017-Jun-20 09:30N 46°54' W 002°08'0 0.0
2017-Jun-20 09:00N 46°54' W 002°08'0 0.0
2017-Jun-20 08:30N 46°54' W 002°08'0 0.0
2017-Jun-20 08:00N 46°54' W 002°08'0 0.0
2017-Jun-20 07:30N 46°54' W 002°08'0 0.0
2017-Jun-20 07:00N 46°54' W 002°08'0 0.0
2017-Jun-20 06:30N 46°54' W 002°08'0 0.0
2017-Jun-20 06:00N 46°54' W 002°08'0 0.0
2017-Jun-20 05:30N 46°54' W 002°08'0 0.0
2017-Jun-20 05:00N 46°54' W 002°08'0 0.0
2017-Jun-20 04:30N 46°54' W 002°08'0 0.0
2017-Jun-20 04:00N 46°54' W 002°08'0 0.0
2017-Jun-20 03:30N 46°54' W 002°08'0 0.0
2017-Jun-20 03:00N 46°54' W 002°08'0 0.0
2017-Jun-20 02:30N 46°54' W 002°08'0 0.0
2017-Jun-20 02:00N 46°54' W 002°08'0 0.0
2017-Jun-20 01:30N 46°54' W 002°08'0 0.0
2017-Jun-20 01:00N 46°54' W 002°08'0 0.0
2017-Jun-20 00:30N 46°54' W 002°08'0 0.0
2017-Jun-20 00:00N 46°54' W 002°08'0 0.0
2017-Jun-19 23:30N 46°54' W 002°08'0 0.0
2017-Jun-19 23:00N 46°54' W 002°08'0 0.0
2017-Jun-19 22:30N 46°54' W 002°08'0 0.0
2017-Jun-19 22:00N 46°54' W 002°08'0 0.0
2017-Jun-19 21:30N 46°54' W 002°08'0 0.0
2017-Jun-19 21:00N 46°54' W 002°08'0 0.0
2017-Jun-19 20:30N 46°54' W 002°08'0 0.0
2017-Jun-19 20:00N 46°54' W 002°08'0 0.0
2017-Jun-19 19:30N 46°54' W 002°08'0 0.0
2017-Jun-19 19:00N 46°54' W 002°08'0 0.0
2017-Jun-19 18:30N 46°54' W 002°08'0 0.0
2017-Jun-19 18:00N 46°54' W 002°08'0 0.0
2017-Jun-19 17:30N 46°54' W 002°08'0 0.0
2017-Jun-19 16:59N 46°54' W 002°08'0 0.0
2017-Jun-19 16:30N 46°54' W 002°08'0 0.0
2017-Jun-19 16:00N 46°54' W 002°08'0 0.0
2017-Jun-19 15:30N 46°54' W 002°08'0 0.0
2017-Jun-19 15:00N 46°54' W 002°08'0 0.0
2017-Jun-19 14:20N 46°54' W 002°08'0 0.0
2017-Jun-19 13:25N 46°54' W 002°08'2 0.0
2017-Jun-17 10:26N 46°53' W 002°11'2 4.3
2017-Jun-17 09:59N 46°54' W 002°08'0 0.0
2017-Jun-17 09:30N 46°54' W 002°08'0 0.0
2017-Jun-17 09:00N 46°54' W 002°08'0 0.0
2017-Jun-17 08:30N 46°54' W 002°08'0 0.0
2017-Jun-17 08:01N 46°54' W 002°08'13 1.0
2017-Jun-16 19:16N 46°44' W 002°21'313.3
2017-Jun-16 19:00N 46°46' W 002°18'813.4
2017-Jun-16 18:23N 46°53' W 002°11'2 5.0
2017-Jun-16 18:00N 46°54' W 002°08'0 0.0
2017-Jun-16 17:27N 46°54' W 002°08'0 0.0
2017-Jun-16 17:00N 46°54' W 002°08'0 0.0
2017-Jun-16 16:30N 46°54' W 002°08'0 0.0
2017-Jun-16 16:00N 46°54' W 002°08'0 0.0
2017-Jun-16 15:27N 46°54' W 002°08'0 0.0
2017-Jun-16 14:58N 46°54' W 002°08'0 0.0
2017-Jun-16 13:40N 46°54' W 002°08'0 0.0
2017-Jun-16 13:17N 46°54' W 002°08'0 0.0
2017-Jun-16 12:58N 46°54' W 002°08'0 0.0
2017-Jun-16 12:30N 46°54' W 002°08'0 0.0
2017-Jun-16 12:00N 46°54' W 002°08'0 0.0
2017-Jun-16 11:30N 46°54' W 002°08'0 0.0
2017-Jun-16 11:00N 46°54' W 002°08'0 0.0
2017-Jun-16 10:30N 46°54' W 002°08'10 8.7
2017-Jun-16 09:22N 46°46' W 002°18'1 0.3
2017-Jun-16 06:38N 46°47' W 002°17'213.8
2017-Jun-16 06:29N 46°49' W 002°16'612.3
2017-Jun-16 05:58N 46°54' W 002°10'1 2.8
2017-Jun-16 05:30N 46°54' W 002°08'0 0.0
2017-Jun-16 05:00N 46°54' W 002°08'0 0.0
2017-Jun-16 04:30N 46°54' W 002°08'0 0.0
2017-Jun-16 04:00N 46°54' W 002°08'0 0.0
2017-Jun-16 03:30N 46°54' W 002°08'0 0.0
2017-Jun-16 03:00N 46°54' W 002°08'0 0.0
2017-Jun-16 02:30N 46°54' W 002°08'0 0.0
2017-Jun-16 02:00N 46°54' W 002°08'0 0.0
2017-Jun-16 01:30N 46°54' W 002°08'0 0.0
2017-Jun-16 01:00N 46°54' W 002°08'0 0.0
2017-Jun-16 00:30N 46°54' W 002°08'0 0.0
2017-Jun-16 00:00N 46°54' W 002°08'0 0.0
2017-Jun-15 23:30N 46°54' W 002°08'0 0.0
2017-Jun-15 23:00N 46°54' W 002°08'0 0.0
2017-Jun-15 22:30N 46°54' W 002°08'0 0.0
2017-Jun-15 22:00N 46°54' W 002°08'0 0.0
2017-Jun-15 21:30N 46°54' W 002°08'0 0.0
2017-Jun-15 21:00N 46°54' W 002°08'0 0.0
2017-Jun-15 20:30N 46°54' W 002°08'0 0.0
2017-Jun-15 20:00N 46°54' W 002°08'0 0.0
2017-Jun-15 19:30N 46°54' W 002°08'0 0.0
2017-Jun-15 19:00N 46°54' W 002°08'0 0.0
2017-Jun-15 18:30N 46°54' W 002°08'0 0.0
2017-Jun-15 18:00N 46°54' W 002°08'0 0.0
2017-Jun-15 17:30N 46°54' W 002°08'0 0.0
2017-Jun-15 17:00N 46°54' W 002°08'0 0.0
2017-Jun-15 16:29N 46°54' W 002°08'0 0.0
2017-Jun-15 15:58N 46°54' W 002°08'0 0.0
2017-Jun-15 15:28N 46°54' W 002°08'0 0.0
2017-Jun-15 14:59N 46°54' W 002°08'0 0.0
2017-Jun-15 13:59N 46°54' W 002°08'0 0.0
2017-Jun-15 13:18N 46°54' W 002°08'0 0.0
2017-Jun-15 12:57N 46°54' W 002°08'0 0.0
2017-Jun-15 12:28N 46°54' W 002°08'0 0.0
2017-Jun-15 12:00N 46°54' W 002°08'0 0.0
2017-Jun-15 11:30N 46°54' W 002°08'0 0.0
2017-Jun-15 10:58N 46°54' W 002°08'0 0.0
2017-Jun-15 10:29N 46°54' W 002°08'0 0.0
2017-Jun-15 10:00N 46°54' W 002°08'0 0.0
2017-Jun-15 09:30N 46°54' W 002°08'5 9.9
2017-Jun-15 09:00N 46°50' W 002°14'713.3
2017-Jun-15 08:30N 46°45' W 002°19'2 1.3
2017-Jun-15 07:14N 46°44' W 002°21'0 0.0
2017-Jun-15 06:55N 46°44' W 002°21'0 0.0
2017-Jun-15 06:30N 46°44' W 002°21'0 0.7
2017-Jun-15 06:00N 46°44' W 002°21'713.5
2017-Jun-15 05:31N 46°49' W 002°15'612.4
2017-Jun-15 05:00N 46°54' W 002°08'0 0.1
2017-Jun-15 04:30N 46°54' W 002°08'0 0.0
2017-Jun-15 04:00N 46°54' W 002°08'0 0.0
2017-Jun-15 03:30N 46°54' W 002°08'0 0.0
2017-Jun-15 02:58N 46°54' W 002°08'0 0.0
2017-Jun-15 02:30N 46°54' W 002°08'0 0.0
2017-Jun-15 02:00N 46°54' W 002°08'0 0.0
2017-Jun-15 01:30N 46°54' W 002°08'0 0.0
2017-Jun-15 01:00N 46°54' W 002°08'0 0.0
2017-Jun-15 00:30N 46°54' W 002°08'0 0.0
2017-Jun-15 00:00N 46°54' W 002°08'0 0.0
2017-Jun-14 23:30N 46°54' W 002°08'0 0.0
2017-Jun-14 23:00N 46°54' W 002°08'0 0.0
2017-Jun-14 22:30N 46°54' W 002°08'0 0.0
2017-Jun-14 22:00N 46°54' W 002°08'0 0.0
2017-Jun-14 21:30N 46°54' W 002°08'0 0.0
2017-Jun-14 21:00N 46°54' W 002°08'0 0.0
2017-Jun-14 20:30N 46°54' W 002°08'0 0.0
2017-Jun-14 20:00N 46°54' W 002°08'0 0.0
2017-Jun-14 19:30N 46°54' W 002°08'0 0.0
2017-Jun-14 19:00N 46°54' W 002°08'0 0.0
2017-Jun-14 18:30N 46°54' W 002°08'0 0.0
2017-Jun-14 17:59N 46°54' W 002°08'0 0.0
2017-Jun-14 17:26N 46°54' W 002°08'2 3.6
2017-Jun-14 17:00N 46°54' W 002°11'9 0.8
2017-Jun-14 06:11N 46°46' W 002°18'313.6
2017-Jun-14 06:00N 46°48' W 002°16'613.0
2017-Jun-14 05:30N 46°54' W 002°11'2 3.1
2017-Jun-14 05:00N 46°54' W 002°08'  
Track history (hours):
 
Tides and Currents Weather Stations Pressure Air Temp Water Temp Dewpoint Dewpoint Depression Visibility Wind Speed Wind Dir Waves Ship Positions

Insula Oya 2

Last reported at 2017-Jun-24 04:45 UTC. Time now 2017-Jun-24 17:29 UTC.
Position N 46°53' W 002°11'.

Length 50 m; draft 2.4 m.

Type: Passenger vessel. MMSI: 227004900.

Date/timePositionNaut miles runAvg speedWind from/ knotsBaromVisibWave heightAir tempDewpointWater temp
2017-Jun-24 04:45N 46°53' W 002°11'2 8.8
2017-Jun-24 04:30N 46°54' W 002°08'0 0.0
2017-Jun-24 03:59N 46°54' W 002°08'0 0.0
2017-Jun-24 03:13N 46°54' W 002°08'0 0.0
2017-Jun-24 02:58N 46°54' W 002°08'0 0.0
2017-Jun-24 02:28N 46°54' W 002°08'0 0.0
2017-Jun-24 01:58N 46°54' W 002°08'0 0.0
2017-Jun-24 01:28N 46°54' W 002°08'0 0.0
2017-Jun-24 00:58N 46°54' W 002°08'0 0.0
2017-Jun-24 00:25N 46°54' W 002°08'0 0.0
2017-Jun-23 23:58N 46°54' W 002°08'0 0.0
2017-Jun-23 23:22N 46°54' W 002°08'0 0.0
2017-Jun-23 22:58N 46°54' W 002°08'0 0.0
2017-Jun-23 22:28N 46°54' W 002°08'0 0.0
2017-Jun-23 21:58N 46°54' W 002°08'0 0.0
2017-Jun-23 21:28N 46°54' W 002°08'0 0.0
2017-Jun-23 20:58N 46°54' W 002°08'0 0.0
2017-Jun-23 20:28N 46°54' W 002°08'0 0.0
2017-Jun-23 19:58N 46°54' W 002°08'0 0.0
2017-Jun-23 19:28N 46°54' W 002°08'0 0.0
2017-Jun-23 18:52N 46°54' W 002°08'0 0.0
2017-Jun-23 18:28N 46°54' W 002°08'0 0.0
2017-Jun-23 17:58N 46°54' W 002°08'0 0.0
2017-Jun-23 17:19N 46°54' W 002°08'0 0.0
2017-Jun-23 16:58N 46°54' W 002°08'0 0.0
2017-Jun-23 16:25N 46°54' W 002°08'0 0.0
2017-Jun-23 15:55N 46°54' W 002°08'0 0.0
2017-Jun-23 15:13N 46°54' W 002°08'0 0.0
2017-Jun-23 14:55N 46°54' W 002°08'0 0.0
2017-Jun-23 13:49N 46°54' W 002°08'0 0.0
2017-Jun-23 13:23N 46°54' W 002°08'13 1.6
2017-Jun-23 05:08N 46°44' W 002°21'411.2
2017-Jun-23 04:47N 46°47' W 002°17'414.4
2017-Jun-23 04:29N 46°50' W 002°14'510.8
2017-Jun-23 04:00N 46°54' W 002°08'0 0.0
2017-Jun-23 03:30N 46°54' W 002°08'0 0.0
2017-Jun-23 02:59N 46°54' W 002°08'1 2.4
2017-Jun-23 02:30N 46°54' W 002°10'612.0
2017-Jun-23 02:00N 46°49' W 002°16'612.9
2017-Jun-23 01:31N 46°44' W 002°21'3 0.4
2017-Jun-22 15:49N 46°46' W 002°18'414.1
2017-Jun-22 15:30N 46°50' W 002°14'510.8
2017-Jun-22 15:01N 46°54' W 002°08'0 0.0
2017-Jun-22 13:56N 46°54' W 002°08'0 0.0
2017-Jun-22 13:20N 46°54' W 002°08'1 3.8
2017-Jun-22 13:00N 46°54' W 002°10'812.9
2017-Jun-22 12:22N 46°47' W 002°17'4 0.7
2017-Jun-22 06:25N 46°44' W 002°21'0 0.0
2017-Jun-22 05:58N 46°44' W 002°21'0 0.0
2017-Jun-22 05:19N 46°44' W 002°21'0 0.0
2017-Jun-22 04:58N 46°44' W 002°21'0 0.0
2017-Jun-22 04:13N 46°44' W 002°21'0 0.0
2017-Jun-22 03:53N 46°44' W 002°21'410.7
2017-Jun-22 03:30N 46°47' W 002°17'714.1
2017-Jun-22 03:00N 46°53' W 002°12'3 5.1
2017-Jun-22 02:30N 46°54' W 002°08'0 0.0
2017-Jun-22 02:00N 46°54' W 002°08'0 0.0
2017-Jun-22 01:29N 46°54' W 002°08'0 0.0
2017-Jun-22 00:57N 46°54' W 002°08'0 0.0
2017-Jun-22 00:27N 46°54' W 002°08'0 0.0
2017-Jun-21 23:57N 46°54' W 002°08'0 0.0
2017-Jun-21 23:30N 46°54' W 002°08'0 0.0
2017-Jun-21 23:00N 46°54' W 002°08'0 0.0
2017-Jun-21 22:15N 46°54' W 002°08'0 0.0
2017-Jun-21 21:57N 46°54' W 002°08'0 0.0
2017-Jun-21 20:51N 46°54' W 002°08'0 0.0
2017-Jun-21 20:24N 46°54' W 002°08'0 0.0
2017-Jun-21 19:57N 46°54' W 002°08'0 0.0
2017-Jun-21 19:30N 46°54' W 002°08'0 0.0
2017-Jun-21 19:00N 46°54' W 002°08'0 0.0
2017-Jun-21 18:30N 46°54' W 002°08'0 0.0
2017-Jun-21 18:00N 46°54' W 002°08'0 0.0
2017-Jun-21 17:30N 46°54' W 002°08'0 0.0
2017-Jun-21 17:00N 46°54' W 002°08'0 0.0
2017-Jun-21 16:30N 46°54' W 002°08'0 0.0
2017-Jun-21 15:57N 46°54' W 002°08'2 3.6
2017-Jun-21 15:30N 46°54' W 002°11'612.2
2017-Jun-21 15:01N 46°49' W 002°16'612.2
2017-Jun-21 14:30N 46°44' W 002°21'0 0.0
2017-Jun-21 13:24N 46°44' W 002°21'0 0.0
2017-Jun-21 12:24N 46°44' W 002°21'3 7.7
2017-Jun-21 12:00N 46°46' W 002°18'713.2
2017-Jun-21 11:29N 46°52' W 002°13'4 7.4
2017-Jun-21 11:00N 46°54' W 002°08'0 0.0
2017-Jun-21 10:28N 46°54' W 002°08'0 0.0
2017-Jun-21 09:32N 46°54' W 002°08'0 0.1
2017-Jun-21 09:26N 46°54' W 002°08'0 0.0
2017-Jun-21 08:44N 46°54' W 002°08'0 0.0
2017-Jun-21 08:26N 46°54' W 002°08'0 0.0
2017-Jun-21 07:56N 46°54' W 002°08'0 0.0
2017-Jun-21 06:50N 46°54' W 002°08'0 0.0
2017-Jun-21 06:29N 46°54' W 002°08'0 0.0
2017-Jun-21 05:26N 46°54' W 002°08'0 0.0
2017-Jun-21 04:56N 46°54' W 002°08'0 0.0
2017-Jun-21 04:29N 46°54' W 002°08'0 0.0
2017-Jun-21 03:59N 46°54' W 002°08'0 0.0
2017-Jun-21 03:29N 46°54' W 002°08'0 0.0
2017-Jun-21 02:59N 46°54' W 002°08'0 0.0
2017-Jun-21 02:29N 46°54' W 002°08'0 0.0
2017-Jun-21 01:59N 46°54' W 002°08'0 0.0
2017-Jun-21 01:29N 46°54' W 002°08'0 0.0
2017-Jun-21 00:59N 46°54' W 002°08'0 0.0
2017-Jun-21 00:20N 46°54' W 002°08'0 0.0
2017-Jun-20 23:53N 46°54' W 002°08'0 0.0
2017-Jun-20 23:29N 46°54' W 002°08'0 0.0
2017-Jun-20 22:59N 46°54' W 002°08'0 0.0
2017-Jun-20 22:29N 46°54' W 002°08'0 0.0
2017-Jun-20 21:59N 46°54' W 002°08'0 0.0
2017-Jun-20 21:29N 46°54' W 002°08'0 0.0
2017-Jun-20 20:56N 46°54' W 002°08'0 0.0
2017-Jun-20 20:29N 46°54' W 002°08'0 0.0
2017-Jun-20 19:35N 46°54' W 002°08'0 0.0
2017-Jun-20 19:29N 46°54' W 002°08'0 0.0
2017-Jun-20 18:53N 46°54' W 002°08'0 0.0
2017-Jun-20 18:29N 46°54' W 002°08'0 0.0
2017-Jun-20 17:59N 46°54' W 002°08'0 0.0
2017-Jun-20 17:26N 46°54' W 002°08'0 0.0
2017-Jun-20 16:50N 46°54' W 002°08'0 0.0
2017-Jun-20 16:26N 46°54' W 002°08'0 0.0
2017-Jun-20 15:56N 46°54' W 002°08'0 0.0
2017-Jun-20 14:44N 46°54' W 002°08'710.0
2017-Jun-20 14:00N 46°49' W 002°16'612.0
2017-Jun-20 13:30N 46°44' W 002°21'0 0.0
2017-Jun-20 12:55N 46°44' W 002°21'0 0.0
2017-Jun-20 12:16N 46°44' W 002°21'0 0.0
2017-Jun-20 11:49N 46°44' W 002°21'0 0.0
2017-Jun-20 11:23N 46°44' W 002°21'4 9.3
2017-Jun-20 11:00N 46°46' W 002°18'713.1
2017-Jun-20 10:30N 46°52' W 002°13'3 6.9
2017-Jun-20 10:00N 46°54' W 002°08'0 0.0
2017-Jun-20 09:30N 46°54' W 002°08'0 0.0
2017-Jun-20 09:00N 46°54' W 002°08'0 0.0
2017-Jun-20 08:30N 46°54' W 002°08'0 0.0
2017-Jun-20 08:00N 46°54' W 002°08'0 0.0
2017-Jun-20 07:30N 46°54' W 002°08'0 0.0
2017-Jun-20 07:00N 46°54' W 002°08'0 0.0
2017-Jun-20 06:30N 46°54' W 002°08'0 0.0
2017-Jun-20 06:00N 46°54' W 002°08'0 0.0
2017-Jun-20 05:30N 46°54' W 002°08'0 0.0
2017-Jun-20 05:00N 46°54' W 002°08'0 0.0
2017-Jun-20 04:30N 46°54' W 002°08'0 0.0
2017-Jun-20 04:00N 46°54' W 002°08'0 0.0
2017-Jun-20 03:30N 46°54' W 002°08'0 0.0
2017-Jun-20 03:00N 46°54' W 002°08'0 0.0
2017-Jun-20 02:30N 46°54' W 002°08'0 0.0
2017-Jun-20 02:00N 46°54' W 002°08'0 0.0
2017-Jun-20 01:30N 46°54' W 002°08'0 0.0
2017-Jun-20 01:00N 46°54' W 002°08'0 0.0
2017-Jun-20 00:30N 46°54' W 002°08'0 0.0
2017-Jun-20 00:00N 46°54' W 002°08'0 0.0
2017-Jun-19 23:30N 46°54' W 002°08'0 0.0
2017-Jun-19 23:00N 46°54' W 002°08'0 0.0
2017-Jun-19 22:30N 46°54' W 002°08'0 0.0
2017-Jun-19 22:00N 46°54' W 002°08'0 0.0
2017-Jun-19 21:30N 46°54' W 002°08'0 0.0
2017-Jun-19 21:00N 46°54' W 002°08'0 0.0
2017-Jun-19 20:30N 46°54' W 002°08'0 0.0
2017-Jun-19 20:00N 46°54' W 002°08'0 0.0
2017-Jun-19 19:30N 46°54' W 002°08'0 0.0
2017-Jun-19 19:00N 46°54' W 002°08'0 0.0
2017-Jun-19 18:30N 46°54' W 002°08'0 0.0
2017-Jun-19 18:00N 46°54' W 002°08'0 0.0
2017-Jun-19 17:30N 46°54' W 002°08'0 0.0
2017-Jun-19 16:59N 46°54' W 002°08'0 0.0
2017-Jun-19 16:30N 46°54' W 002°08'0 0.0
2017-Jun-19 16:00N 46°54' W 002°08'0 0.0
2017-Jun-19 15:30N 46°54' W 002°08'0 0.0
2017-Jun-19 15:00N 46°54' W 002°08'0 0.0
2017-Jun-19 14:20N 46°54' W 002°08'0 0.0
2017-Jun-19 13:25N 46°54' W 002°08'2 0.0
2017-Jun-17 10:26N 46°53' W 002°11'2 4.3
2017-Jun-17 09:59N 46°54' W 002°08'0 0.0
2017-Jun-17 09:30N 46°54' W 002°08'0 0.0
2017-Jun-17 09:00N 46°54' W 002°08'0 0.0
2017-Jun-17 08:30N 46°54' W 002°08'0 0.0
2017-Jun-17 08:01N 46°54' W 002°08'13 1.0
2017-Jun-16 19:16N 46°44' W 002°21'313.3
2017-Jun-16 19:00N 46°46' W 002°18'813.4
2017-Jun-16 18:23N 46°53' W 002°11'2 5.0
2017-Jun-16 18:00N 46°54' W 002°08'0 0.0
2017-Jun-16 17:27N 46°54' W 002°08'0 0.0
2017-Jun-16 17:00N 46°54' W 002°08'0 0.0
2017-Jun-16 16:30N 46°54' W 002°08'0 0.0
2017-Jun-16 16:00N 46°54' W 002°08'0 0.0
2017-Jun-16 15:27N 46°54' W 002°08'0 0.0
2017-Jun-16 14:58N 46°54' W 002°08'0 0.0
2017-Jun-16 13:40N 46°54' W 002°08'0 0.0
2017-Jun-16 13:17N 46°54' W 002°08'0 0.0
2017-Jun-16 12:58N 46°54' W 002°08'0 0.0
2017-Jun-16 12:30N 46°54' W 002°08'0 0.0
2017-Jun-16 12:00N 46°54' W 002°08'0 0.0
2017-Jun-16 11:30N 46°54' W 002°08'0 0.0
2017-Jun-16 11:00N 46°54' W 002°08'0 0.0
2017-Jun-16 10:30N 46°54' W 002°08'10 8.7
2017-Jun-16 09:22N 46°46' W 002°18'1 0.3
2017-Jun-16 06:38N 46°47' W 002°17'213.8
2017-Jun-16 06:29N 46°49' W 002°16'612.3
2017-Jun-16 05:58N 46°54' W 002°10'1 2.8
2017-Jun-16 05:30N 46°54' W 002°08'0 0.0
2017-Jun-16 05:00N 46°54' W 002°08'0 0.0
2017-Jun-16 04:30N 46°54' W 002°08'0 0.0
2017-Jun-16 04:00N 46°54' W 002°08'0 0.0
2017-Jun-16 03:30N 46°54' W 002°08'0 0.0
2017-Jun-16 03:00N 46°54' W 002°08'0 0.0
2017-Jun-16 02:30N 46°54' W 002°08'0 0.0
2017-Jun-16 02:00N 46°54' W 002°08'0 0.0
2017-Jun-16 01:30N 46°54' W 002°08'0 0.0
2017-Jun-16 01:00N 46°54' W 002°08'0 0.0
2017-Jun-16 00:30N 46°54' W 002°08'0 0.0
2017-Jun-16 00:00N 46°54' W 002°08'0 0.0
2017-Jun-15 23:30N 46°54' W 002°08'0 0.0
2017-Jun-15 23:00N 46°54' W 002°08'0 0.0
2017-Jun-15 22:30N 46°54' W 002°08'0 0.0
2017-Jun-15 22:00N 46°54' W 002°08'0 0.0
2017-Jun-15 21:30N 46°54' W 002°08'0 0.0
2017-Jun-15 21:00N 46°54' W 002°08'0 0.0
2017-Jun-15 20:30N 46°54' W 002°08'0 0.0
2017-Jun-15 20:00N 46°54' W 002°08'0 0.0
2017-Jun-15 19:30N 46°54' W 002°08'0 0.0
2017-Jun-15 19:00N 46°54' W 002°08'0 0.0
2017-Jun-15 18:30N 46°54' W 002°08'0 0.0
2017-Jun-15 18:00N 46°54' W 002°08'0 0.0
2017-Jun-15 17:30N 46°54' W 002°08'0 0.0
2017-Jun-15 17:00N 46°54' W 002°08'0 0.0
2017-Jun-15 16:29N 46°54' W 002°08'0 0.0
2017-Jun-15 15:58N 46°54' W 002°08'0 0.0
2017-Jun-15 15:28N 46°54' W 002°08'0 0.0
2017-Jun-15 14:59N 46°54' W 002°08'0 0.0
2017-Jun-15 13:59N 46°54' W 002°08'0 0.0
2017-Jun-15 13:18N 46°54' W 002°08'0 0.0
2017-Jun-15 12:57N 46°54' W 002°08'0 0.0
2017-Jun-15 12:28N 46°54' W 002°08'0 0.0
2017-Jun-15 12:00N 46°54' W 002°08'0 0.0
2017-Jun-15 11:30N 46°54' W 002°08'0 0.0
2017-Jun-15 10:58N 46°54' W 002°08'0 0.0
2017-Jun-15 10:29N 46°54' W 002°08'0 0.0
2017-Jun-15 10:00N 46°54' W 002°08'0 0.0
2017-Jun-15 09:30N 46°54' W 002°08'5 9.9
2017-Jun-15 09:00N 46°50' W 002°14'713.3
2017-Jun-15 08:30N 46°45' W 002°19'2 1.3
2017-Jun-15 07:14N 46°44' W 002°21'0 0.0
2017-Jun-15 06:55N 46°44' W 002°21'0 0.0
2017-Jun-15 06:30N 46°44' W 002°21'0 0.7
2017-Jun-15 06:00N 46°44' W 002°21'713.5
2017-Jun-15 05:31N 46°49' W 002°15'612.4
2017-Jun-15 05:00N 46°54' W 002°08'0 0.1
2017-Jun-15 04:30N 46°54' W 002°08'0 0.0
2017-Jun-15 04:00N 46°54' W 002°08'0 0.0
2017-Jun-15 03:30N 46°54' W 002°08'0 0.0
2017-Jun-15 02:58N 46°54' W 002°08'0 0.0
2017-Jun-15 02:30N 46°54' W 002°08'0 0.0
2017-Jun-15 02:00N 46°54' W 002°08'0 0.0
2017-Jun-15 01:30N 46°54' W 002°08'0 0.0
2017-Jun-15 01:00N 46°54' W 002°08'0 0.0
2017-Jun-15 00:30N 46°54' W 002°08'0 0.0
2017-Jun-15 00:00N 46°54' W 002°08'0 0.0
2017-Jun-14 23:30N 46°54' W 002°08'0 0.0
2017-Jun-14 23:00N 46°54' W 002°08'0 0.0
2017-Jun-14 22:30N 46°54' W 002°08'0 0.0
2017-Jun-14 22:00N 46°54' W 002°08'0 0.0
2017-Jun-14 21:30N 46°54' W 002°08'0 0.0
2017-Jun-14 21:00N 46°54' W 002°08'0 0.0
2017-Jun-14 20:30N 46°54' W 002°08'0 0.0
2017-Jun-14 20:00N 46°54' W 002°08'0 0.0
2017-Jun-14 19:30N 46°54' W 002°08'0 0.0
2017-Jun-14 19:00N 46°54' W 002°08'0 0.0
2017-Jun-14 18:30N 46°54' W 002°08'0 0.0
2017-Jun-14 17:59N 46°54' W 002°08'0 0.0
2017-Jun-14 17:26N 46°54' W 002°08'2 3.6
2017-Jun-14 17:00N 46°54' W 002°11'9 0.8
2017-Jun-14 06:11N 46°46' W 002°18'313.6
2017-Jun-14 06:00N 46°48' W 002°16'613.0
2017-Jun-14 05:30N 46°54' W 002°11'2 3.1
2017-Jun-14 05:00N 46°54' W 002°08'  

Dump ship's entire track history